Time;durP1;ratioP1;P1;durP2;ratioP2;P2;SDS_P1;SDS_P2;PMS_P1;PMS_P2;Temp;Humidity;BMP_temperature;BMP_pressure;BME280_temperature;BME280_humidity;BME280_pressure;Samples;Min_cycle;Max_cycle;Signal;HPM_P1;HPM_P2
2023/09/27 00:00:36;;;;;;;1.52;1.25;;;14.90;87.60;;;;;;6129715;23;20002;-78
2023/09/27 00:03:03;;;;;;;1.70;1.25;;;14.90;87.60;;;;;;6154665;23;19989;-78
2023/09/27 00:05:31;;;;;;;1.33;1.20;;;15.00;87.60;;;;;;6143866;23;20032;-79
2023/09/27 00:08:26;;;;;;;1.90;1.15;;;14.90;87.60;;;;;;6111810;23;20018;-85
2023/09/27 00:10:51;;;;;;;1.90;1.38;;;14.90;87.60;;;;;;6078140;23;20062;-77
2023/09/27 00:13:17;;;;;;;1.67;1.17;;;15.00;87.60;;;;;;6078473;23;20062;-78
2023/09/27 00:15:51;;;;;;;1.15;1.05;;;14.90;87.50;;;;;;6056487;23;20063;-81
2023/09/27 00:18:17;;;;;;;1.80;1.42;;;15.00;87.50;;;;;;6011350;23;20027;-79
2023/09/27 00:20:43;;;;;;;1.75;1.20;;;14.90;87.50;;;;;;6035474;23;20381;-79
2023/09/27 00:23:09;;;;;;;1.30;1.00;;;15.00;87.50;;;;;;6035174;23;20356;-78
2023/09/27 00:25:35;;;;;;;1.17;1.08;;;15.00;87.50;;;;;;6035310;23;20007;-79
2023/09/27 00:28:01;;;;;;;1.88;1.20;;;15.10;87.60;;;;;;6023037;23;20622;-79
2023/09/27 00:30:26;;;;;;;2.13;1.40;;;15.00;87.60;;;;;;6035208;23;20117;-79
2023/09/27 00:32:53;;;;;;;1.50;1.17;;;15.10;87.70;;;;;;6035634;23;20004;-79
2023/09/27 00:35:20;;;;;;;1.50;1.13;;;15.10;87.60;;;;;;6055456;23;20040;-79
2023/09/27 00:37:46;;;;;;;1.40;1.27;;;15.10;87.60;;;;;;6097394;23;20010;-79
2023/09/27 00:40:14;;;;;;;2.53;1.52;;;15.20;87.70;;;;;;6073722;23;20093;-78
2023/09/27 00:42:40;;;;;;;1.65;1.30;;;15.10;88.20;;;;;;6084958;23;20013;-79
2023/09/27 00:45:07;;;;;;;2.25;1.33;;;15.10;87.60;;;;;;6182321;23;20438;-79
2023/09/27 00:47:34;;;;;;;1.50;1.27;;;15.20;87.60;;;;;;6157532;23;20009;-79
2023/09/27 00:50:00;;;;;;;1.52;1.20;;;15.20;87.60;;;;;;6182209;23;20448;-79
2023/09/27 00:52:26;;;;;;;1.83;1.35;;;15.20;87.60;;;;;;6157359;23;19997;-79
2023/09/27 00:54:53;;;;;;;1.52;1.00;;;15.20;87.60;;;;;;6157342;23;20005;-79
2023/09/27 00:57:19;;;;;;;1.65;1.30;;;15.20;87.70;;;;;;6184110;23;22366;-79
2023/09/27 00:59:45;;;;;;;2.05;1.42;;;15.20;87.70;;;;;;6181913;23;20009;-79
2023/09/27 01:02:12;;;;;;;1.38;1.10;;;15.20;87.80;;;;;;6181685;23;20012;-79
2023/09/27 01:04:40;;;;;;;1.70;1.20;;;15.10;87.90;;;;;;6182315;23;20422;-79
2023/09/27 01:07:07;;;;;;;2.25;1.55;;;15.10;88.00;;;;;;6182105;23;20021;-79
2023/09/27 01:09:37;;;;;;;2.28;1.50;;;15.00;88.00;;;;;;6157196;23;20028;-79
2023/09/27 01:12:07;;;;;;;2.53;1.75;;;15.00;88.00;;;;;;6182116;23;20020;-79
2023/09/27 01:14:36;;;;;;;2.65;1.55;;;15.00;88.10;;;;;;6133639;23;20016;-79
2023/09/27 01:17:16;;;;;;;1.75;1.30;;;15.00;88.20;;;;;;6183610;23;20020;-79
2023/09/27 01:19:42;;;;;;;1.98;1.50;;;14.90;88.30;;;;;;6132832;23;20005;-78
2023/09/27 01:22:08;;;;;;;1.83;1.30;;;14.90;88.30;;;;;;6132694;23;20005;-79
2023/09/27 01:24:37;;;;;;;2.03;1.58;;;14.90;88.40;;;;;;6182546;23;20080;-79
2023/09/27 01:27:05;;;;;;;2.50;1.52;;;14.90;88.40;;;;;;6160473;23;20013;-78
2023/09/27 01:29:31;;;;;;;2.13;1.50;;;14.80;88.40;;;;;;6184840;23;20001;-78
2023/09/27 01:31:57;;;;;;;1.95;1.52;;;14.80;88.50;;;;;;6157450;23;20055;-79
2023/09/27 01:34:23;;;;;;;1.88;1.52;;;14.90;88.60;;;;;;6181915;23;20016;-80
2023/09/27 01:36:48;;;;;;;2.65;1.77;;;14.80;88.60;;;;;;6132698;23;20013;-79
2023/09/27 01:39:14;;;;;;;2.72;1.80;;;14.70;88.60;;;;;;6157797;23;20434;-79
2023/09/27 01:41:40;;;;;;;2.60;1.85;;;14.70;88.70;;;;;;6182707;23;20009;-79
2023/09/27 01:44:05;;;;;;;1.75;1.40;;;14.70;88.70;;;;;;6181881;23;20322;-79
2023/09/27 01:46:32;;;;;;;3.28;1.85;;;14.70;88.70;;;;;;6181856;23;20429;-79
2023/09/27 01:48:57;;;;;;;2.25;1.50;;;14.70;88.70;;;;;;6133608;23;19994;-78
2023/09/27 01:51:23;;;;;;;2.33;1.63;;;14.70;88.80;;;;;;6158185;23;20001;-79
2023/09/27 01:53:49;;;;;;;2.38;1.73;;;14.60;88.80;;;;;;6157191;23;20438;-79
2023/09/27 01:56:15;;;;;;;2.10;1.48;;;14.60;88.90;;;;;;6182666;23;20012;-79
2023/09/27 01:58:40;;;;;;;2.25;1.60;;;14.60;88.90;;;;;;6157689;23;20005;-78
2023/09/27 02:01:06;;;;;;;2.08;1.60;;;14.50;89.00;;;;;;6157807;23;20088;-78
2023/09/27 02:03:32;;;;;;;1.70;1.10;;;14.50;89.00;;;;;;6159237;23;20002;-78
2023/09/27 02:05:58;;;;;;;2.10;1.50;;;14.50;89.00;;;;;;6158032;23;20020;-78
2023/09/27 02:08:24;;;;;;;2.10;1.33;;;14.50;89.00;;;;;;6183347;23;20001;-78
2023/09/27 02:10:51;;;;;;;1.38;1.17;;;14.40;89.00;;;;;;6156939;23;20001;-78
2023/09/27 02:13:16;;;;;;;1.25;1.13;;;14.40;89.00;;;;;;6132854;23;20005;-79
2023/09/27 02:15:42;;;;;;;2.22;1.50;;;14.50;89.00;;;;;;6132730;23;20077;-78
2023/09/27 02:18:08;;;;;;;2.13;1.58;;;14.50;89.10;;;;;;6183454;23;20733;-78
2023/09/27 02:20:34;;;;;;;1.38;1.20;;;14.40;89.10;;;;;;6183518;23;20307;-78
2023/09/27 02:22:59;;;;;;;2.25;1.60;;;14.30;89.10;;;;;;6181784;23;20001;-79
2023/09/27 02:25:25;;;;;;;2.63;1.63;;;14.30;89.10;;;;;;6182070;23;20016;-79
2023/09/27 02:27:51;;;;;;;2.20;1.60;;;14.30;89.10;;;;;;6182429;23;20012;-78
2023/09/27 02:30:17;;;;;;;2.85;1.70;;;14.20;89.10;;;;;;6132398;23;20089;-79
2023/09/27 02:32:43;;;;;;;2.70;1.60;;;14.30;89.20;;;;;;6181820;23;20025;-79
2023/09/27 02:35:09;;;;;;;2.60;1.73;;;14.30;89.20;;;;;;6182023;23;20084;-79
2023/09/27 02:37:36;;;;;;;2.38;1.77;;;14.30;89.20;;;;;;6183640;23;20043;-78
2023/09/27 02:40:11;;;;;;;1.85;1.50;;;14.30;89.30;;;;;;6182049;23;20028;-78
2023/09/27 02:42:40;;;;;;;2.38;1.73;;;14.20;89.20;;;;;;6158854;23;20009;-78
2023/09/27 02:45:07;;;;;;;2.63;1.38;;;14.20;89.30;;;;;;6183609;23;20005;-78
2023/09/27 02:47:34;;;;;;;1.98;1.58;;;14.10;89.20;;;;;;6156622;23;20319;-79
2023/09/27 02:50:00;;;;;;;2.42;1.58;;;14.10;89.30;;;;;;6157047;23;20460;-78
2023/09/27 02:52:26;;;;;;;2.15;1.17;;;14.00;89.30;;;;;;6156927;23;20088;-78
2023/09/27 02:54:51;;;;;;;3.22;1.80;;;14.10;89.50;;;;;;6183173;23;19997;-78
2023/09/27 02:57:17;;;;;;;2.28;1.55;;;14.00;89.40;;;;;;6181458;23;20012;-79
2023/09/27 02:59:42;;;;;;;2.13;1.50;;;13.90;89.30;;;;;;6182239;23;20005;-78
2023/09/27 03:02:08;;;;;;;1.75;1.50;;;14.00;89.50;;;;;;6181467;23;20009;-79
2023/09/27 03:04:34;;;;;;;2.60;1.70;;;14.00;89.50;;;;;;6181834;23;20013;-79
2023/09/27 03:07:00;;;;;;;2.28;1.75;;;14.00;89.50;;;;;;6181274;23;20405;-79
2023/09/27 03:09:26;;;;;;;2.33;1.50;;;14.00;89.60;;;;;;6156875;23;20013;-79
2023/09/27 03:11:52;;;;;;;1.38;1.17;;;13.90;89.50;;;;;;6181590;23;20016;-79
2023/09/27 03:14:18;;;;;;;2.28;1.52;;;13.90;89.50;;;;;;6183245;23;20006;-78
2023/09/27 03:16:43;;;;;;;2.28;1.20;;;13.90;89.50;;;;;;6182714;23;20013;-79
2023/09/27 03:19:09;;;;;;;1.63;1.33;;;13.90;89.60;;;;;;6181897;23;20005;-78
2023/09/27 03:21:35;;;;;;;2.17;1.40;;;13.80;89.60;;;;;;6181579;23;20008;-79
2023/09/27 03:24:01;;;;;;;1.60;1.40;;;13.80;89.60;;;;;;6180959;23;20019;-79
2023/09/27 03:26:27;;;;;;;1.52;1.27;;;13.80;89.60;;;;;;6156853;23;20021;-79
2023/09/27 03:28:53;;;;;;;2.85;1.45;;;13.80;89.70;;;;;;6156710;23;19997;-79
2023/09/27 03:31:19;;;;;;;1.80;1.40;;;13.80;89.70;;;;;;6183216;23;20016;-78
2023/09/27 03:33:46;;;;;;;2.80;1.63;;;13.80;89.80;;;;;;6181596;23;20016;-78
2023/09/27 03:36:12;;;;;;;2.05;1.33;;;13.70;89.70;;;;;;6156561;23;20329;-78
2023/09/27 03:38:38;;;;;;;1.73;1.45;;;13.70;89.70;;;;;;6181312;23;20001;-78
2023/09/27 03:41:11;;;;;;;1.92;1.50;;;13.70;89.70;;;;;;6132152;23;20012;-78
2023/09/27 03:43:37;;;;;;;2.50;1.70;;;13.70;89.80;;;;;;6180925;23;20092;-78
2023/09/27 03:46:04;;;;;;;2.00;1.45;;;13.70;89.80;;;;;;6181139;23;20064;-78
2023/09/27 03:48:31;;;;;;;1.75;1.40;;;13.70;89.80;;;;;;6157298;23;19997;-78
2023/09/27 03:50:57;;;;;;;1.70;1.25;;;13.70;89.80;;;;;;6156514;23;19997;-80
2023/09/27 03:53:23;;;;;;;2.53;1.55;;;13.60;89.70;;;;;;6156421;23;20009;-78
2023/09/27 03:55:49;;;;;;;3.25;1.58;;;13.70;89.80;;;;;;6181064;23;20342;-79
2023/09/27 03:58:15;;;;;;;1.67;1.30;;;13.60;89.70;;;;;;6156530;23;20005;-78
2023/09/27 04:00:41;;;;;;;3.03;1.50;;;13.60;89.80;;;;;;6181256;23;20456;-78
2023/09/27 04:03:06;;;;;;;2.35;1.55;;;13.50;89.80;;;;;;6181242;23;20345;-78
2023/09/27 04:05:32;;;;;;;2.10;1.50;;;13.50;89.80;;;;;;6181054;23;20847;-79
2023/09/27 04:07:58;;;;;;;1.60;1.40;;;13.50;89.80;;;;;;6181275;23;20016;-79
2023/09/27 04:10:24;;;;;;;1.75;1.35;;;13.50;89.80;;;;;;6181281;23;20020;-78
2023/09/27 04:12:50;;;;;;;1.75;1.35;;;13.60;89.90;;;;;;6181247;23;20047;-78
2023/09/27 04:15:16;;;;;;;1.75;1.38;;;13.50;89.80;;;;;;6181483;23;20001;-79
2023/09/27 04:17:42;;;;;;;2.50;1.70;;;13.50;89.80;;;;;;6182398;23;20005;-78
2023/09/27 04:22:47;;;;;;;1.75;1.27;;;13.50;89.70;;;;;;6181364;23;20013;-78
2023/09/27 04:25:14;;;;;;;2.15;1.52;;;13.50;89.70;;;;;;6182587;23;20429;-78
2023/09/27 04:27:44;;;;;;;1.60;1.30;;;13.50;89.80;;;;;;6180616;23;20013;-78
2023/09/27 04:30:12;;;;;;;1.20;1.10;;;13.50;89.80;;;;;;6182594;23;20378;-78
2023/09/27 04:32:40;;;;;;;1.42;1.33;;;13.40;89.70;;;;;;6180914;23;20016;-78
2023/09/27 04:35:09;;;;;;;2.60;1.52;;;13.40;89.80;;;;;;6156375;23;20008;-78
2023/09/27 04:37:36;;;;;;;2.58;1.55;;;13.40;89.80;;;;;;6182539;23;20107;-78
2023/09/27 04:40:11;;;;;;;1.33;1.17;;;13.40;89.80;;;;;;6157808;23;20012;-79
2023/09/27 04:42:38;;;;;;;1.63;1.13;;;13.40;89.90;;;;;;6158110;23;20019;-78
2023/09/27 04:45:08;;;;;;;1.48;1.20;;;13.40;89.80;;;;;;6157578;23;20012;-78
2023/09/27 04:47:37;;;;;;;2.15;1.50;;;13.40;89.80;;;;;;6182759;23;20016;-79
2023/09/27 04:50:09;;;;;;;2.40;1.60;;;13.40;89.80;;;;;;6183124;23;20005;-79
2023/09/27 04:52:35;;;;;;;1.98;1.40;;;13.30;89.80;;;;;;6158431;23;20342;-79
2023/09/27 04:55:02;;;;;;;2.38;1.48;;;13.30;89.80;;;;;;6184145;23;20020;-79
2023/09/27 04:57:27;;;;;;;2.33;1.48;;;13.30;89.90;;;;;;6159427;23;20067;-80
2023/09/27 04:59:53;;;;;;;2.70;1.70;;;13.30;89.90;;;;;;6134353;23;20017;-79
2023/09/27 05:02:20;;;;;;;2.53;1.80;;;13.30;90.20;;;;;;6186970;23;20084;-79
2023/09/27 05:04:47;;;;;;;2.65;1.70;;;13.30;90.00;;;;;;6163107;23;20048;-79
2023/09/27 05:07:16;;;;;;;2.42;1.67;;;13.30;90.00;;;;;;6162955;23;20016;-79
2023/09/27 05:09:41;;;;;;;2.33;1.63;;;13.30;90.00;;;;;;6165007;23;20421;-79
2023/09/27 05:12:07;;;;;;;2.78;1.67;;;13.30;90.00;;;;;;6148686;23;20003;-80
2023/09/27 05:14:35;;;;;;;2.80;1.80;;;13.30;90.00;;;;;;6197484;23;19998;-80
2023/09/27 05:17:01;;;;;;;1.75;1.25;;;13.20;90.00;;;;;;6199855;23;20089;-80
2023/09/27 05:19:27;;;;;;;2.60;1.40;;;13.30;90.00;;;;;;6199905;23;20009;-81
2023/09/27 05:21:53;;;;;;;1.40;1.30;;;13.30;90.00;;;;;;6190965;23;20091;-77
2023/09/27 05:24:19;;;;;;;1.92;1.42;;;13.30;89.90;;;;;;6182298;23;20005;-78
2023/09/27 05:26:45;;;;;;;1.90;1.45;;;13.30;89.90;;;;;;6183760;23;20021;-78
2023/09/27 05:29:13;;;;;;;2.42;1.52;;;13.40;89.90;;;;;;6157181;23;20429;-78
2023/09/27 05:31:41;;;;;;;1.55;1.30;;;13.40;89.80;;;;;;6182262;23;20031;-78
2023/09/27 05:34:07;;;;;;;2.15;1.40;;;13.30;89.80;;;;;;6182102;23;20020;-78
2023/09/27 05:36:33;;;;;;;2.17;1.38;;;13.30;89.80;;;;;;6183569;23;20087;-78
2023/09/27 05:39:02;;;;;;;2.25;1.55;;;13.40;89.80;;;;;;6126582;23;20025;-77
2023/09/27 05:41:28;;;;;;;2.00;1.50;;;13.40;89.80;;;;;;6151584;23;20541;-76
2023/09/27 05:43:54;;;;;;;1.52;1.30;;;13.30;89.70;;;;;;6151317;23;20061;-77
2023/09/27 05:46:20;;;;;;;2.08;1.40;;;13.40;89.80;;;;;;6151308;23;20014;-77
2023/09/27 05:48:45;;;;;;;2.55;1.52;;;13.40;89.80;;;;;;6126389;23;20025;-77
2023/09/27 05:51:12;;;;;;;2.47;1.63;;;13.40;89.80;;;;;;6126829;23;20009;-77
2023/09/27 05:53:38;;;;;;;1.88;1.40;;;13.40;89.80;;;;;;6126977;23;20013;-77
2023/09/27 05:56:07;;;;;;;2.10;1.58;;;13.50;89.80;;;;;;6151352;23;20009;-77
2023/09/27 05:58:37;;;;;;;2.80;1.77;;;13.50;90.20;;;;;;6126869;23;20097;-77
2023/09/27 06:01:04;;;;;;;3.20;1.92;;;13.50;89.80;;;;;;6121735;23;20022;-77
2023/09/27 06:03:31;;;;;;;2.35;1.70;;;13.50;89.80;;;;;;6097598;23;20355;-77
2023/09/27 06:05:58;;;;;;;2.70;1.70;;;13.50;89.70;;;;;;6097252;23;20367;-77
2023/09/27 06:08:24;;;;;;;2.00;1.50;;;13.60;89.70;;;;;;6122148;23;20018;-77
2023/09/27 06:10:50;;;;;;;2.63;1.88;;;13.50;89.60;;;;;;6072978;23;20093;-77
2023/09/27 06:13:15;;;;;;;1.83;1.30;;;13.60;89.70;;;;;;6039651;23;20411;-78
2023/09/27 06:15:42;;;;;;;1.73;1.30;;;13.70;89.60;;;;;;6064620;23;20019;-76
2023/09/27 06:18:07;;;;;;;2.95;1.80;;;13.70;89.60;;;;;;6065416;23;20029;-77
2023/09/27 06:20:33;;;;;;;2.42;1.75;;;13.70;89.50;;;;;;6064528;23;20408;-77
2023/09/27 06:23:03;;;;;;;2.70;1.70;;;13.80;89.50;;;;;;6063862;23;20432;-77
2023/09/27 06:25:30;;;;;;;2.63;1.75;;;13.80;89.40;;;;;;6039780;23;20227;-78
2023/09/27 06:27:57;;;;;;;2.67;1.77;;;13.80;89.30;;;;;;6064018;23;20412;-78
2023/09/27 06:30:23;;;;;;;2.78;1.80;;;13.90;89.40;;;;;;6064388;23;20093;-78
2023/09/27 06:32:49;;;;;;;2.20;1.80;;;13.90;89.40;;;;;;6063607;23;20046;-77
2023/09/27 06:35:15;;;;;;;2.83;1.90;;;13.90;89.40;;;;;;6040009;23;20074;-77
2023/09/27 06:37:43;;;;;;;2.30;1.40;;;14.00;89.40;;;;;;6086361;23;20018;-77
2023/09/27 06:40:16;;;;;;;2.50;1.70;;;14.00;89.30;;;;;;6130160;23;20091;-76
2023/09/27 06:42:43;;;;;;;1.90;1.55;;;14.00;89.30;;;;;;6128162;23;20071;-76
2023/09/27 06:45:10;;;;;;;3.08;1.98;;;14.10;89.30;;;;;;6174654;23;20471;-75
2023/09/27 06:47:38;;;;;;;2.70;1.85;;;14.10;89.90;;;;;;6156929;23;20393;-76
2023/09/27 06:50:09;;;;;;;2.83;1.80;;;14.20;89.20;;;;;;6158427;23;20028;-75
2023/09/27 06:52:37;;;;;;;;;;;14.20;89.20;;;;;;6158026;23;20006;-75
2023/09/27 06:55:10;;;;;;;1.75;1.42;;;14.20;89.10;;;;;;6183849;23;19975;-75
2023/09/27 06:57:38;;;;;;;2.90;1.63;;;14.30;89.00;;;;;;6183278;23;20016;-76
2023/09/27 07:02:45;;;;;;;2.88;1.67;;;14.40;88.90;;;;;;6182649;23;20048;-73
2023/09/27 07:05:11;;;;;;;2.67;1.88;;;14.50;88.90;;;;;;6157477;23;20044;-74
2023/09/27 07:07:38;;;;;;;2.53;1.80;;;14.60;88.90;;;;;;6183693;23;20066;-74
2023/09/27 07:10:08;;;;;;;2.60;1.92;;;14.60;88.90;;;;;;6183737;23;20009;-74
2023/09/27 07:12:35;;;;;;;2.53;1.80;;;14.70;88.80;;;;;;6181577;23;20009;-72
2023/09/27 07:15:04;;;;;;;3.42;1.75;;;14.90;88.80;;;;;;6183144;23;20067;-74
2023/09/27 07:17:29;;;;;;;2.30;1.50;;;14.90;88.70;;;;;;6181659;23;20012;-74
2023/09/27 07:19:56;;;;;;;2.00;1.52;;;14.90;88.60;;;;;;6181415;23;20024;-75
2023/09/27 07:22:23;;;;;;;2.30;1.73;;;15.00;88.50;;;;;;6182040;23;20009;-75
2023/09/27 07:24:48;;;;;;;3.97;1.95;;;15.10;88.50;;;;;;6182310;23;20349;-74
2023/09/27 07:27:14;;;;;;;2.92;1.50;;;15.20;88.60;;;;;;6181512;23;20013;-75
2023/09/27 07:29:40;;;;;;;2.90;1.88;;;15.20;88.40;;;;;;6183296;23;20008;-74
2023/09/27 07:32:06;;;;;;;1.73;1.40;;;15.20;88.40;;;;;;6183710;23;20002;-76
2023/09/27 07:34:31;;;;;;;2.13;1.40;;;15.30;88.40;;;;;;6182181;23;20033;-74
2023/09/27 07:36:57;;;;;;;2.28;1.90;;;15.30;88.40;;;;;;6183395;23;20533;-75
2023/09/27 07:39:23;;;;;;;2.20;1.90;;;15.30;88.40;;;;;;6183084;23;20087;-74
2023/09/27 07:41:49;;;;;;;3.45;2.10;;;15.40;88.50;;;;;;6183111;23;20013;-74
2023/09/27 07:44:17;;;;;;;3.25;2.30;;;15.50;88.50;;;;;;6182806;23;20020;-75
2023/09/27 07:46:44;;;;;;;1.85;1.58;;;15.50;88.40;;;;;;6181145;23;20017;-76
2023/09/27 07:49:10;;;;;;;2.83;1.80;;;15.50;88.40;;;;;;6181494;23;20005;-75
2023/09/27 07:51:36;;;;;;;4.40;1.80;;;15.60;88.40;;;;;;6181406;23;20033;-75
2023/09/27 07:54:04;;;;;;;2.58;1.90;;;15.70;88.50;;;;;;6182661;23;20445;-75
2023/09/27 07:56:36;;;;;;;2.60;1.85;;;15.70;88.50;;;;;;6157228;23;20449;-75
2023/09/27 07:59:03;;;;;;;1.98;1.63;;;15.70;88.50;;;;;;6182685;23;20430;-76
2023/09/27 08:01:29;;;;;;;3.00;1.63;;;15.80;88.50;;;;;;6126334;23;20105;-76
2023/09/27 08:04:05;;;;;;;2.90;1.88;;;15.90;88.40;;;;;;6101585;23;20059;-76
2023/09/27 08:06:33;;;;;;;2.55;1.83;;;16.00;88.40;;;;;;6150390;23;20052;-76
2023/09/27 08:09:01;;;;;;;2.65;1.80;;;16.10;88.30;;;;;;6101461;23;20063;-76
2023/09/27 08:11:27;;;;;;;2.42;1.88;;;16.20;88.20;;;;;;6151895;23;20025;-77
2023/09/27 08:13:53;;;;;;;2.75;1.75;;;16.20;88.20;;;;;;6152706;23;20066;-76
2023/09/27 08:16:19;;;;;;;2.53;1.73;;;16.30;88.20;;;;;;6172892;23;20028;-77
2023/09/27 08:18:45;;;;;;;2.60;1.50;;;16.30;88.20;;;;;;6144232;23;20072;-77
2023/09/27 08:21:11;;;;;;;1.95;1.42;;;16.40;88.10;;;;;;6146197;23;20024;-77
2023/09/27 08:23:37;;;;;;;3.03;1.55;;;16.50;88.10;;;;;;6168265;23;19997;-78
2023/09/27 08:26:02;;;;;;;2.60;1.67;;;16.60;88.10;;;;;;6172559;23;20049;-77
2023/09/27 08:28:31;;;;;;;3.38;2.00;;;16.60;88.00;;;;;;6116443;23;20362;-77
2023/09/27 08:30:58;;;;;;;2.38;1.60;;;16.60;87.90;;;;;;6163684;23;20010;-76
2023/09/27 08:33:25;;;;;;;1.88;1.38;;;16.70;88.00;;;;;;6180472;23;20044;-75
2023/09/27 08:35:52;;;;;;;2.58;1.83;;;16.80;88.00;;;;;;6182956;23;20083;-75
2023/09/27 08:38:18;;;;;;;2.95;2.10;;;16.80;87.90;;;;;;6158399;23;20017;-75
2023/09/27 08:40:47;;;;;;;2.28;1.65;;;16.90;88.00;;;;;;6160225;23;20059;-75
2023/09/27 08:43:14;;;;;;;2.33;1.70;;;16.90;87.80;;;;;;6159406;23;20020;-76
2023/09/27 08:45:40;;;;;;;2.92;1.98;;;17.00;87.80;;;;;;6182523;23;20015;-75
2023/09/27 08:48:11;;;;;;;2.45;1.63;;;17.00;87.70;;;;;;6195961;23;20013;-77
2023/09/27 08:50:37;;;;;;;2.15;1.63;;;17.10;87.80;;;;;;6171052;23;20065;-76
2023/09/27 08:53:06;;;;;;;1.80;1.42;;;17.20;87.80;;;;;;6187749;23;20028;-77
2023/09/27 08:55:37;;;;;;;1.38;1.17;;;17.30;87.60;;;;;;6187968;23;20012;-77
2023/09/27 08:58:06;;;;;;;;;;;17.30;87.50;;;;;;6190915;23;20016;-77
2023/09/27 09:00:33;;;;;;;2.05;1.60;;;17.40;87.30;;;;;;6184876;23;20026;-76
2023/09/27 09:03:00;;;;;;;2.63;1.90;;;17.50;87.30;;;;;;6154799;23;20021;-76
2023/09/27 09:05:27;;;;;;;2.65;1.77;;;17.60;87.10;;;;;;6131617;23;20013;-76
2023/09/27 09:07:55;;;;;;;2.03;1.50;;;17.60;86.90;;;;;;6130465;23;20077;-76
2023/09/27 09:10:22;;;;;;;2.90;1.70;;;17.70;86.90;;;;;;6156413;23;20009;-76
2023/09/27 09:12:49;;;;;;;2.15;1.52;;;17.90;86.80;;;;;;6127104;23;20083;-76
2023/09/27 09:15:33;;;;;;;2.03;1.60;;;17.90;86.60;;;;;;6127948;23;20013;-76
2023/09/27 09:18:02;;;;;;;1.88;1.48;;;18.00;86.70;;;;;;6129822;23;20021;-76
2023/09/27 09:20:32;;;;;;;2.63;1.70;;;18.10;86.50;;;;;;6154461;23;20030;-79
2023/09/27 09:23:02;;;;;;;1.53;1.23;;;18.20;86.40;;;;;;6127909;23;20034;-76
2023/09/27 09:25:31;;;;;;;2.22;1.42;;;18.30;86.30;;;;;;6136719;23;20311;-76
2023/09/27 09:28:07;;;;;;;1.48;1.25;;;18.40;86.20;;;;;;6127048;23;20031;-73
2023/09/27 09:30:37;;;;;;;1.98;1.45;;;18.50;86.00;;;;;;6128006;23;20068;-77
2023/09/27 09:33:20;;;;;;;1.42;1.30;;;18.70;85.90;;;;;;6157091;23;20009;-76
2023/09/27 09:35:46;;;;;;;2.63;1.50;;;18.80;85.80;;;;;;6186520;23;20005;-77
2023/09/27 09:38:23;;;;;;;2.05;1.23;;;18.90;85.70;;;;;;6161549;23;20147;-76
2023/09/27 09:40:58;;;;;;;1.75;1.27;;;19.00;85.60;;;;;;6161693;23;20023;-74
2023/09/27 09:43:36;;;;;;;1.85;1.30;;;19.10;85.50;;;;;;6159697;23;20024;-76
2023/09/27 09:46:08;;;;;;;3.10;1.20;;;19.20;85.40;;;;;;6112359;23;20018;-76
2023/09/27 09:48:35;;;;;;;1.77;1.40;;;19.20;85.40;;;;;;6042019;23;20023;-75
2023/09/27 09:51:04;;;;;;;1.88;1.30;;;19.30;85.40;;;;;;6064325;23;20082;-74
2023/09/27 09:53:30;;;;;;;1.55;1.10;;;19.30;85.40;;;;;;6064170;23;20007;-74
2023/09/27 09:56:00;;;;;;;2.05;1.10;;;19.40;85.50;;;;;;6040893;23;20054;-75
2023/09/27 09:58:35;;;;;;;1.37;1.03;;;19.50;85.40;;;;;;6064461;23;20516;-74
2023/09/27 10:01:02;;;;;;;1.38;1.27;;;19.50;85.30;;;;;;6064518;23;20014;-73
2023/09/27 10:03:33;;;;;;;1.60;1.20;;;19.60;85.30;;;;;;6063810;23;20848;-75
2023/09/27 10:06:01;;;;;;;0.95;0.88;;;19.60;85.30;;;;;;6065852;23;20082;-76
2023/09/27 10:08:34;;;;;;;1.58;1.02;;;19.60;85.40;;;;;;6017435;23;20019;-74
2023/09/27 10:11:04;;;;;;;1.08;0.98;;;19.70;85.40;;;;;;6064193;23;20015;-75
2023/09/27 10:13:36;;;;;;;1.17;1.05;;;19.70;85.30;;;;;;6064053;23;20023;-75
2023/09/27 10:16:04;;;;;;;1.80;1.00;;;19.80;85.30;;;;;;5955070;23;20023;-74
2023/09/27 10:18:35;;;;;;;1.40;1.25;;;19.90;85.30;;;;;;5957790;23;20047;-75
2023/09/27 10:21:07;;;;;;;1.92;1.17;;;19.90;85.20;;;;;;6011109;23;20019;-75
2023/09/27 10:23:59;;;;;;;1.38;1.10;;;20.10;85.20;;;;;;5987872;23;20360;-75
2023/09/27 10:26:33;;;;;;;1.73;1.30;;;20.10;85.00;;;;;;6075397;23;20031;-75
2023/09/27 10:29:12;;;;;;;1.20;0.98;;;20.10;84.90;;;;;;6063422;23;20019;-75
2023/09/27 10:32:17;;;;;;;1.27;0.90;;;20.30;84.90;;;;;;6041146;23;20010;-75
2023/09/27 10:34:43;;;;;;;1.05;0.93;;;20.30;84.80;;;;;;6039587;23;20070;-75
2023/09/27 10:37:09;;;;;;;0.80;0.80;;;20.40;84.70;;;;;;6040131;23;20351;-75
2023/09/27 10:39:39;;;;;;;0.80;0.80;;;20.40;84.60;;;;;;6015701;23;20062;-75
2023/09/27 10:42:04;;;;;;;1.40;1.10;;;20.40;84.50;;;;;;6064035;23;20538;-74
2023/09/27 10:44:33;;;;;;;1.38;0.93;;;20.50;84.60;;;;;;6040006;23;20019;-75
2023/09/27 10:47:01;;;;;;;1.90;1.30;;;20.50;84.70;;;;;;6040265;23;20019;-75
2023/09/27 10:49:37;;;;;;;0.85;0.75;;;20.60;84.70;;;;;;6083689;23;20020;-74
2023/09/27 10:52:06;;;;;;;0.73;0.70;;;20.70;85.30;;;;;;6126609;23;20021;-74
2023/09/27 10:54:33;;;;;;;0.95;0.90;;;20.60;84.50;;;;;;6092393;23;20045;-74
2023/09/27 10:57:02;;;;;;;1.45;0.98;;;20.70;84.50;;;;;;6090745;23;20435;-74
2023/09/27 10:59:29;;;;;;;1.40;1.08;;;20.80;84.50;;;;;;6064619;23;20213;-75
2023/09/27 11:01:56;;;;;;;1.17;0.90;;;20.80;84.40;;;;;;6068587;23;20375;-74
2023/09/27 11:04:24;;;;;;;1.73;1.25;;;20.80;84.30;;;;;;6092998;23;20014;-75
2023/09/27 11:06:50;;;;;;;1.13;0.95;;;20.80;84.30;;;;;;6092649;23;20077;-75
2023/09/27 11:09:19;;;;;;;1.77;1.20;;;20.90;84.40;;;;;;6093091;23;20078;-75
2023/09/27 11:11:47;;;;;;;1.77;1.27;;;20.90;84.30;;;;;;6092706;23;20018;-74
2023/09/27 11:14:31;;;;;;;1.55;1.20;;;20.90;84.30;;;;;;6092641;23;20061;-75
2023/09/27 11:17:16;;;;;;;1.23;1.00;;;21.00;84.30;;;;;;6092244;23;20069;-74
2023/09/27 11:19:41;;;;;;;0.98;0.90;;;21.00;84.20;;;;;;6092952;23;20022;-74
2023/09/27 11:22:08;;;;;;;2.10;1.38;;;21.00;84.20;;;;;;6092997;23;20089;-73
2023/09/27 11:24:38;;;;;;;1.20;1.10;;;21.10;84.20;;;;;;6068125;23;20030;-73
2023/09/27 11:27:08;;;;;;;1.45;1.20;;;21.10;84.20;;;;;;6068453;23;20022;-73
2023/09/27 11:29:37;;;;;;;1.77;1.38;;;21.20;84.20;;;;;;6068172;23;20014;-73
2023/09/27 11:32:03;;;;;;;1.10;1.00;;;21.20;84.10;;;;;;6142952;23;20051;-72
2023/09/27 11:34:30;;;;;;;1.77;1.05;;;21.20;84.00;;;;;;6127300;23;20010;-72
2023/09/27 11:36:57;;;;;;;1.80;0.98;;;21.20;84.00;;;;;;6183118;23;20013;-73
2023/09/27 11:39:29;;;;;;;1.33;0.98;;;21.20;84.00;;;;;;6183035;23;20017;-73
2023/09/27 11:41:58;;;;;;;1.58;1.17;;;21.20;84.00;;;;;;6157526;23;20001;-73
2023/09/27 11:44:26;;;;;;;1.30;1.10;;;21.20;84.00;;;;;;6156277;23;20012;-73
2023/09/27 11:47:05;;;;;;;1.92;1.17;;;21.20;84.00;;;;;;6185879;23;20641;-75
2023/09/27 11:49:31;;;;;;;1.58;1.00;;;21.20;84.00;;;;;;6193683;23;20059;-74
2023/09/27 11:51:56;;;;;;;1.08;0.98;;;21.30;84.00;;;;;;6136816;23;20029;-75
2023/09/27 11:54:22;;;;;;;1.33;1.10;;;21.30;83.90;;;;;;6161309;23;20081;-75
2023/09/27 11:56:48;;;;;;;1.70;1.13;;;21.40;83.80;;;;;;6193494;23;20013;-76
2023/09/27 11:59:13;;;;;;;0.90;0.90;;;21.40;83.60;;;;;;6135577;23;20022;-75
2023/09/27 12:01:39;;;;;;;0.90;0.90;;;21.50;84.20;;;;;;6131472;23;20366;-74
2023/09/27 12:04:05;;;;;;;1.08;1.00;;;21.50;83.40;;;;;;6076123;23;20439;-74
2023/09/27 12:06:32;;;;;;;1.30;0.95;;;21.50;83.30;;;;;;6098241;23;20018;-75
2023/09/27 12:08:59;;;;;;;2.47;1.20;;;21.60;83.20;;;;;;6098636;23;20026;-76
2023/09/27 12:11:25;;;;;;;1.35;1.10;;;21.60;83.10;;;;;;6099672;23;20010;-76
2023/09/27 12:13:51;;;;;;;1.20;1.10;;;21.60;83.00;;;;;;6101337;23;20088;-75
2023/09/27 12:16:20;;;;;;;1.63;1.10;;;21.60;83.00;;;;;;6125387;23;20014;-74
2023/09/27 12:18:46;;;;;;;1.58;1.10;;;21.70;82.90;;;;;;6074604;23;20100;-75
2023/09/27 12:21:13;;;;;;;0.90;0.90;;;21.60;82.70;;;;;;6098481;23;20017;-74
2023/09/27 12:23:40;;;;;;;1.30;1.05;;;21.60;82.60;;;;;;6098588;23;20529;-76
2023/09/27 12:26:06;;;;;;;0.98;0.90;;;21.60;82.60;;;;;;6123133;23;20009;-75
2023/09/27 12:28:36;;;;;;;0.77;0.77;;;21.60;82.60;;;;;;6099403;23;20097;-75
2023/09/27 12:31:05;;;;;;;1.20;1.05;;;21.60;82.60;;;;;;6144453;23;20017;-75
2023/09/27 12:33:32;;;;;;;1.35;1.10;;;21.60;82.60;;;;;;6101732;23;20045;-75
2023/09/27 12:36:00;;;;;;;2.00;0.95;;;21.60;82.50;;;;;;6074634;23;20049;-76
2023/09/27 12:38:26;;;;;;;1.30;1.20;;;21.70;82.60;;;;;;6041364;23;20358;-76
2023/09/27 12:40:52;;;;;;;1.92;1.50;;;21.60;82.50;;;;;;6041748;23;20019;-75
2023/09/27 12:43:18;;;;;;;1.23;1.05;;;21.60;82.30;;;;;;6018662;23;20015;-75
2023/09/27 12:45:44;;;;;;;1.10;1.00;;;21.60;82.30;;;;;;6041687;23;20058;-76
2023/09/27 12:48:10;;;;;;;2.00;1.27;;;21.60;82.30;;;;;;6017821;23;20019;-75
2023/09/27 12:50:40;;;;;;;1.25;1.10;;;21.70;82.20;;;;;;6065838;23;20070;-74
2023/09/27 12:53:06;;;;;;;1.10;1.00;;;21.70;82.70;;;;;;6041794;23;20019;-75
2023/09/27 12:55:32;;;;;;;1.50;1.00;;;21.80;82.50;;;;;;6041700;23;20027;-75